Time;durP1;ratioP1;P1;durP2;ratioP2;P2;SDS_P1;SDS_P2;PMS_P1;PMS_P2;Temp;Humidity;BMP_temperature;BMP_pressure;BME280_temperature;BME280_humidity;BME280_pressure;Samples;Min_cycle;Max_cycle;Signal;HPM_P1;HPM_P2
2022/05/10 00:00:36;;;;;;;1.40;0.80;;;;;;;;;;2057009;28;20599;-59
2022/05/10 00:01:38;;;;;;;3.92;1.10;;;;;;;;;;2057030;28;20133;-60
2022/05/10 00:02:39;;;;;;;1.45;0.82;;;;;;;;;;2057186;28;20297;-59
2022/05/10 00:03:40;;;;;;;3.23;1.47;;;;;;;;;;2056992;28;20536;-60
2022/05/10 00:04:44;;;;;;;1.10;0.85;;;;;;;;;;2056987;28;20291;-59
2022/05/10 00:05:45;;;;;;;1.95;1.17;;;;;;;;;;2057045;28;20181;-60
2022/05/10 00:06:47;;;;;;;2.25;1.10;;;;;;;;;;2057014;28;20570;-58
2022/05/10 00:07:49;;;;;;;1.58;1.20;;;;;;;;;;2056966;28;20141;-59
2022/05/10 00:08:50;;;;;;;2.28;1.20;;;;;;;;;;2057085;28;20281;-57
2022/05/10 00:09:51;;;;;;;1.52;0.90;;;;;;;;;;2056863;28;20047;-60
2022/05/10 00:10:52;;;;;;;2.80;1.10;;;;;;;;;;2057071;28;20129;-60
2022/05/10 00:11:54;;;;;;;1.90;0.95;;;;;;;;;;2056940;28;20496;-59
2022/05/10 00:12:55;;;;;;;;;;;;;;;;;;2057407;28;20134;-58
2022/05/10 00:13:56;;;;;;;3.10;0.80;;;;;;;;;;2057022;28;19985;-59
2022/05/10 00:14:57;;;;;;;2.55;1.23;;;;;;;;;;2056885;28;20046;-60
2022/05/10 00:15:58;;;;;;;2.70;1.10;;;;;;;;;;2056943;28;20050;-59
2022/05/10 00:16:59;;;;;;;2.13;1.00;;;;;;;;;;2056958;28;20078;-59
2022/05/10 00:18:01;;;;;;;1.47;0.90;;;;;;;;;;2056988;28;20050;-59
2022/05/10 00:19:02;;;;;;;2.75;1.40;;;;;;;;;;2056707;28;20055;-59
2022/05/10 00:20:04;;;;;;;3.72;1.10;;;;;;;;;;2056952;28;20408;-58
2022/05/10 00:21:06;;;;;;;2.05;1.08;;;;;;;;;;2057013;28;20054;-59
2022/05/10 00:22:07;;;;;;;2.65;1.10;;;;;;;;;;2057052;28;20057;-59
2022/05/10 00:23:08;;;;;;;2.42;1.30;;;;;;;;;;2056989;28;20197;-59
2022/05/10 00:24:10;;;;;;;2.13;1.20;;;;;;;;;;2056917;28;20528;-59
2022/05/10 00:25:12;;;;;;;1.52;0.77;;;;;;;;;;2056956;28;20130;-59
2022/05/10 00:26:13;;;;;;;2.78;1.00;;;;;;;;;;2056838;28;20043;-58
2022/05/10 00:27:15;;;;;;;3.17;0.90;;;;;;;;;;2056882;28;20416;-60
2022/05/10 00:28:17;;;;;;;2.08;1.25;;;;;;;;;;2056852;28;20584;-59
2022/05/10 00:29:18;;;;;;;1.73;1.05;;;;;;;;;;2056900;28;20046;-59
2022/05/10 00:30:20;;;;;;;1.38;0.80;;;;;;;;;;2056964;28;20126;-59
2022/05/10 00:31:21;;;;;;;2.42;1.17;;;;;;;;;;2057052;28;20141;-59
2022/05/10 00:32:22;;;;;;;2.70;1.10;;;;;;;;;;2056823;28;20100;-59
2022/05/10 00:33:25;;;;;;;2.30;1.08;;;;;;;;;;2056944;28;20584;-59
2022/05/10 00:34:28;;;;;;;2.53;1.30;;;;;;;;;;2056545;28;20190;-59
2022/05/10 00:35:30;;;;;;;1.88;1.10;;;;;;;;;;2056757;28;20054;-59
2022/05/10 00:36:31;;;;;;;1.65;1.00;;;;;;;;;;2056879;28;20134;-59
2022/05/10 00:37:32;;;;;;;2.05;1.00;;;;;;;;;;2056996;28;20086;-59
2022/05/10 00:38:34;;;;;;;2.47;1.20;;;;;;;;;;2057115;28;20777;-50
2022/05/10 00:39:36;;;;;;;2.63;1.20;;;;;;;;;;2056734;28;20404;-50
2022/05/10 00:40:37;;;;;;;2.17;1.05;;;;;;;;;;2056822;28;20487;-51
2022/05/10 00:41:43;;;;;;;1.85;1.10;;;;;;;;;;2056901;28;20161;-51
2022/05/10 00:42:49;;;;;;;1.95;1.10;;;;;;;;;;2056853;28;20090;-48
2022/05/10 00:43:52;;;;;;;1.92;1.15;;;;;;;;;;2056670;28;20082;-51
2022/05/10 00:44:56;;;;;;;2.28;1.15;;;;;;;;;;2056815;28;20182;-48
2022/05/10 00:45:59;;;;;;;2.10;1.20;;;;;;;;;;2056852;28;20130;-48
2022/05/10 00:47:03;;;;;;;2.28;1.30;;;;;;;;;;2056810;28;20074;-49
2022/05/10 00:48:08;;;;;;;2.20;1.20;;;;;;;;;;2056803;28;20073;-50
2022/05/10 00:49:12;;;;;;;4.47;1.35;;;;;;;;;;2061134;28;20053;-51
2022/05/10 00:50:15;;;;;;;2.58;0.93;;;;;;;;;;2064764;28;20173;-50
2022/05/10 00:51:20;;;;;;;1.80;1.00;;;;;;;;;;2064893;28;20129;-48
2022/05/10 00:52:24;;;;;;;1.92;0.88;;;;;;;;;;2064823;28;20050;-48
2022/05/10 00:53:28;;;;;;;2.55;1.38;;;;;;;;;;2064736;28;20046;-50
2022/05/10 00:54:31;;;;;;;1.92;0.93;;;;;;;;;;2064567;28;20542;-49
2022/05/10 00:55:36;;;;;;;3.38;1.20;;;;;;;;;;2064713;28;20129;-48
2022/05/10 00:56:41;;;;;;;2.20;1.42;;;;;;;;;;2064880;28;20054;-51
2022/05/10 00:57:44;;;;;;;2.65;1.48;;;;;;;;;;2064856;28;20460;-50
2022/05/10 00:58:52;;;;;;;2.63;1.10;;;;;;;;;;2064855;28;20145;-59
2022/05/10 00:59:57;;;;;;;4.43;1.13;;;;;;;;;;2064766;28;20053;-58
2022/05/10 01:00:59;;;;;;;2.50;1.17;;;;;;;;;;2064745;28;20527;-58
2022/05/10 01:01:59;;;;;;;;;;;;;;;;;;2065083;28;20141;-58
2022/05/10 01:03:07;;;;;;;1.77;1.05;;;;;;;;;;2064825;28;19921;-58
2022/05/10 01:04:11;;;;;;;2.85;1.15;;;;;;;;;;2064580;28;20053;-58
2022/05/10 01:05:15;;;;;;;2.85;1.30;;;;;;;;;;2064822;28;20169;-58
2022/05/10 01:06:20;;;;;;;2.30;1.30;;;;;;;;;;2064692;28;20141;-58
2022/05/10 01:07:26;;;;;;;3.35;1.33;;;;;;;;;;2064827;28;20133;-58
2022/05/10 01:08:29;;;;;;;3.63;1.70;;;;;;;;;;2064840;28;20054;-58
2022/05/10 01:09:33;;;;;;;4.35;1.80;;;;;;;;;;2064785;28;20061;-59
2022/05/10 01:10:38;;;;;;;3.63;1.17;;;;;;;;;;2064730;28;20130;-58
2022/05/10 01:11:41;;;;;;;2.70;1.48;;;;;;;;;;2064719;28;20084;-59
2022/05/10 01:12:45;;;;;;;3.10;1.10;;;;;;;;;;2064445;28;20134;-58
2022/05/10 01:13:49;;;;;;;3.05;1.33;;;;;;;;;;2064293;28;20084;-58
2022/05/10 01:14:52;;;;;;;3.38;1.35;;;;;;;;;;2064625;28;20051;-59
2022/05/10 01:15:56;;;;;;;3.15;1.52;;;;;;;;;;2064533;28;20152;-58
2022/05/10 01:16:57;;;;;;;2.22;1.15;;;;;;;;;;2064690;28;20058;-58
2022/05/10 01:17:58;;;;;;;2.70;1.40;;;;;;;;;;2064565;28;20046;-58
2022/05/10 01:19:00;;;;;;;2.42;1.33;;;;;;;;;;2059197;28;20070;-58
2022/05/10 01:20:01;;;;;;;2.88;1.40;;;;;;;;;;2056523;28;20157;-58
2022/05/10 01:21:08;;;;;;;2.47;1.25;;;;;;;;;;2056642;28;20054;-59
2022/05/10 01:22:21;;;;;;;3.70;1.50;;;;;;;;;;2056669;28;20130;-58
2022/05/10 01:23:39;;;;;;;2.70;1.55;;;;;;;;;;2056696;28;20127;-58
2022/05/10 01:24:44;;;;;;;3.00;1.38;;;;;;;;;;2056467;28;20122;-59
2022/05/10 01:25:51;;;;;;;2.72;1.17;;;;;;;;;;2056791;28;20360;-58
2022/05/10 01:27:00;;;;;;;1.95;1.25;;;;;;;;;;2056554;28;20046;-58
2022/05/10 01:28:21;;;;;;;2.35;1.10;;;;;;;;;;2056683;28;20125;-58
2022/05/10 01:29:24;;;;;;;3.60;1.27;;;;;;;;;;2056435;28;20125;-58
2022/05/10 01:30:29;;;;;;;2.70;1.27;;;;;;;;;;2056541;28;20472;-58
2022/05/10 01:31:32;;;;;;;2.55;0.88;;;;;;;;;;2048489;28;20051;-59
2022/05/10 01:33:54;;;;;;;2.05;1.02;;;;;;;;;;2039350;29;20052;-59
2022/05/10 01:34:56;;;;;;;2.03;1.30;;;;;;;;;;2046167;28;20055;-58
2022/05/10 01:36:07;;;;;;;2.70;1.05;;;;;;;;;;2048501;28;20108;-58
2022/05/10 01:37:11;;;;;;;1.42;0.77;;;;;;;;;;2048589;28;20556;-58
2022/05/10 01:38:19;;;;;;;3.03;1.48;;;;;;;;;;2048457;28;20047;-58
2022/05/10 01:39:24;;;;;;;2.05;1.13;;;;;;;;;;2048647;28;20102;-59
2022/05/10 01:40:29;;;;;;;1.65;1.20;;;;;;;;;;2048578;28;20131;-59
2022/05/10 01:41:36;;;;;;;1.88;0.98;;;;;;;;;;2048467;28;20523;-58
2022/05/10 01:42:40;;;;;;;2.90;1.10;;;;;;;;;;2048486;28;20111;-59
2022/05/10 01:43:46;;;;;;;2.75;1.10;;;;;;;;;;2048469;28;20138;-59
2022/05/10 01:44:50;;;;;;;3.08;1.20;;;;;;;;;;2048497;28;20130;-59
2022/05/10 01:45:53;;;;;;;1.90;1.10;;;;;;;;;;2048495;28;20055;-58
2022/05/10 01:46:57;;;;;;;2.03;1.02;;;;;;;;;;2048523;28;20062;-59
2022/05/10 01:47:59;;;;;;;1.60;1.20;;;;;;;;;;2048418;28;20130;-59
2022/05/10 01:49:00;;;;;;;;;;;;;;;;;;2048884;28;20150;-59
2022/05/10 01:50:04;;;;;;;1.65;1.00;;;;;;;;;;2048411;28;19923;-59
2022/05/10 01:51:08;;;;;;;2.45;1.25;;;;;;;;;;2048523;28;20142;-59
2022/05/10 01:52:12;;;;;;;2.20;1.10;;;;;;;;;;2048394;28;20584;-58
2022/05/10 01:53:14;;;;;;;1.85;0.93;;;;;;;;;;2048444;28;20106;-58
2022/05/10 01:54:15;;;;;;;;;;;;;;;;;;2048775;28;20381;-61
2022/05/10 01:55:24;;;;;;;4.93;1.52;;;;;;;;;;2048437;28;20044;-58
2022/05/10 01:56:27;;;;;;;3.00;1.10;;;;;;;;;;2048445;28;20557;-58
2022/05/10 01:57:29;;;;;;;2.00;1.00;;;;;;;;;;2048484;28;20055;-59
2022/05/10 01:58:32;;;;;;;2.70;1.10;;;;;;;;;;2048274;28;20126;-58
2022/05/10 01:59:33;;;;;;;2.45;1.20;;;;;;;;;;2048443;28;20055;-58
2022/05/10 02:00:36;;;;;;;3.53;1.20;;;;;;;;;;2048380;28;20049;-59
2022/05/10 02:01:41;;;;;;;3.85;1.20;;;;;;;;;;2048526;28;20067;-59
2022/05/10 02:02:44;;;;;;;2.40;1.25;;;;;;;;;;2048413;28;20075;-59
2022/05/10 02:03:51;;;;;;;3.75;1.50;;;;;;;;;;2048419;28;20135;-59
2022/05/10 02:04:54;;;;;;;5.32;1.30;;;;;;;;;;2048433;28;20051;-59
2022/05/10 02:05:58;;;;;;;4.00;1.48;;;;;;;;;;2048465;28;20055;-58
2022/05/10 02:07:02;;;;;;;3.63;1.70;;;;;;;;;;2048639;28;20055;-49
2022/05/10 02:08:07;;;;;;;2.58;1.48;;;;;;;;;;2048445;28;20101;-48
2022/05/10 02:09:12;;;;;;;3.78;1.60;;;;;;;;;;2048357;28;20134;-48
2022/05/10 02:10:17;;;;;;;2.20;1.20;;;;;;;;;;2048492;28;20300;-49
2022/05/10 02:11:18;;;;;;;4.32;1.38;;;;;;;;;;2048476;28;20174;-49
2022/05/10 02:12:22;;;;;;;2.72;1.30;;;;;;;;;;2048464;28;20066;-49
2022/05/10 02:13:25;;;;;;;3.08;1.40;;;;;;;;;;2048521;28;20043;-49
2022/05/10 02:14:29;;;;;;;1.83;1.10;;;;;;;;;;2048315;28;20565;-49
2022/05/10 02:15:35;;;;;;;3.17;1.65;;;;;;;;;;2048330;28;20063;-48
2022/05/10 02:16:40;;;;;;;3.00;1.42;;;;;;;;;;2048338;28;20047;-51
2022/05/10 02:17:43;;;;;;;3.13;1.67;;;;;;;;;;2048474;28;20047;-48
2022/05/10 02:18:49;;;;;;;2.53;1.45;;;;;;;;;;2051392;28;20055;-59
2022/05/10 02:19:54;;;;;;;3.45;1.15;;;;;;;;;;2056515;28;20480;-59
2022/05/10 02:20:57;;;;;;;4.00;1.70;;;;;;;;;;2056210;28;20051;-59
2022/05/10 02:22:01;;;;;;;5.95;1.42;;;;;;;;;;2056293;28;20051;-59
2022/05/10 02:23:07;;;;;;;2.78;1.38;;;;;;;;;;2056216;28;20047;-59
2022/05/10 02:24:13;;;;;;;3.60;1.38;;;;;;;;;;2056402;28;20137;-59
2022/05/10 02:25:16;;;;;;;6.00;1.75;;;;;;;;;;2057660;28;20126;-58
2022/05/10 02:26:20;;;;;;;2.33;1.10;;;;;;;;;;2057762;28;20465;-58
2022/05/10 02:27:23;;;;;;;3.17;1.50;;;;;;;;;;2057621;28;20051;-58
2022/05/10 02:28:31;;;;;;;2.42;1.20;;;;;;;;;;2057647;28;20066;-58
2022/05/10 02:29:36;;;;;;;2.75;1.45;;;;;;;;;;2057739;28;20130;-58
2022/05/10 02:30:37;;;;;;;2.63;1.40;;;;;;;;;;2057803;28;20055;-58
2022/05/10 02:33:07;;;;;;;5.35;1.85;;;;;;;;;;2057480;28;20141;-58
2022/05/10 02:34:08;;;;;;;4.22;1.65;;;;;;;;;;2057481;28;20047;-58
2022/05/10 02:35:11;;;;;;;3.53;1.40;;;;;;;;;;2057652;28;20050;-58
2022/05/10 02:36:13;;;;;;;4.05;1.20;;;;;;;;;;2057500;28;20472;-58
2022/05/10 02:37:14;;;;;;;2.72;1.42;;;;;;;;;;2057552;28;20432;-58
2022/05/10 02:38:16;;;;;;;2.95;1.63;;;;;;;;;;2057611;28;20336;-58
2022/05/10 02:39:17;;;;;;;2.28;1.35;;;;;;;;;;2057571;28;20125;-58
2022/05/10 02:40:19;;;;;;;4.22;1.70;;;;;;;;;;2057572;28;20134;-58
2022/05/10 02:41:21;;;;;;;3.40;1.60;;;;;;;;;;2057309;28;20057;-58
2022/05/10 02:42:22;;;;;;;2.83;1.50;;;;;;;;;;2057665;28;20126;-58
2022/05/10 02:43:27;;;;;;;6.38;1.83;;;;;;;;;;2057487;28;20081;-59
2022/05/10 02:44:28;;;;;;;4.70;1.70;;;;;;;;;;2057660;28;20055;-59
2022/05/10 02:45:29;;;;;;;3.38;1.60;;;;;;;;;;2057567;28;20043;-59
2022/05/10 02:46:31;;;;;;;3.60;1.60;;;;;;;;;;2057551;28;20129;-59
2022/05/10 02:47:33;;;;;;;3.63;1.42;;;;;;;;;;2057530;28;20055;-59
2022/05/10 02:48:34;;;;;;;;;;;;;;;;;;2057893;28;20535;-59
2022/05/10 02:49:37;;;;;;;7.38;1.83;;;;;;;;;;2057654;28;20013;-59
2022/05/10 02:50:38;;;;;;;4.28;1.45;;;;;;;;;;2057626;28;20142;-58
2022/05/10 02:51:39;;;;;;;7.18;1.67;;;;;;;;;;2057676;28;20057;-59
2022/05/10 02:52:40;;;;;;;2.88;1.25;;;;;;;;;;2057446;28;20138;-58
2022/05/10 02:53:41;;;;;;;3.88;1.75;;;;;;;;;;2057504;28;20058;-59
2022/05/10 02:54:42;;;;;;;2.75;1.25;;;;;;;;;;2057532;28;20118;-58
2022/05/10 02:55:47;;;;;;;2.38;1.50;;;;;;;;;;2057476;28;20062;-58
2022/05/10 02:56:49;;;;;;;4.50;1.70;;;;;;;;;;2057657;28;20042;-51
2022/05/10 02:57:51;;;;;;;3.20;1.55;;;;;;;;;;2057544;28;20129;-48
2022/05/10 02:58:52;;;;;;;;;;;;;;;;;;2057771;28;20077;-49
2022/05/10 02:59:56;;;;;;;3.55;1.33;;;;;;;;;;2057435;28;20366;-49
2022/05/10 03:01:02;;;;;;;3.67;2.10;;;;;;;;;;2057476;28;20173;-49
2022/05/10 03:02:08;;;;;;;6.95;1.73;;;;;;;;;;2057421;28;20050;-50
2022/05/10 03:03:13;;;;;;;2.67;1.48;;;;;;;;;;2057481;28;20038;-48
2022/05/10 03:04:14;;;;;;;4.15;1.42;;;;;;;;;;2057267;28;20194;-50
2022/05/10 03:05:15;;;;;;;3.40;1.88;;;;;;;;;;2057454;28;20069;-49
2022/05/10 03:06:17;;;;;;;3.47;1.70;;;;;;;;;;2057479;28;20527;-49
2022/05/10 03:07:18;;;;;;;;;;;;;;;;;;2057873;28;20069;-48
2022/05/10 03:08:20;;;;;;;7.40;2.45;;;;;;;;;;2057371;28;20380;-50
2022/05/10 03:09:21;;;;;;;5.10;2.25;;;;;;;;;;2057294;28;20488;-48
2022/05/10 03:10:22;;;;;;;4.75;2.45;;;;;;;;;;2057325;28;20070;-48
2022/05/10 03:11:23;;;;;;;8.38;2.50;;;;;;;;;;2057461;28;20050;-49
2022/05/10 03:12:24;;;;;;;6.28;2.70;;;;;;;;;;2057357;28;20121;-48
2022/05/10 03:13:26;;;;;;;6.40;3.28;;;;;;;;;;2057545;28;20394;-59
2022/05/10 03:14:26;;;;;;;7.85;3.13;;;;;;;;;;2057340;28;20047;-59
2022/05/10 03:15:28;;;;;;;6.13;3.00;;;;;;;;;;2057281;28;20382;-59
2022/05/10 03:16:29;;;;;;;5.53;2.67;;;;;;;;;;2057375;28;20137;-58
2022/05/10 03:17:31;;;;;;;4.88;2.63;;;;;;;;;;2057663;28;20042;-58
2022/05/10 03:18:32;;;;;;;6.93;2.88;;;;;;;;;;2057162;28;20101;-58
2022/05/10 03:19:33;;;;;;;9.27;3.28;;;;;;;;;;2057288;28;20133;-59
2022/05/10 03:20:34;;;;;;;7.53;3.63;;;;;;;;;;2057389;28;20050;-59
2022/05/10 03:21:36;;;;;;;7.25;3.30;;;;;;;;;;2057309;28;20046;-58
2022/05/10 03:22:37;;;;;;;9.52;3.50;;;;;;;;;;2057399;28;20129;-58
2022/05/10 03:23:38;;;;;;;13.15;3.95;;;;;;;;;;2057184;28;20493;-58
2022/05/10 03:24:39;;;;;;;10.77;3.33;;;;;;;;;;2057595;28;20205;-52
2022/05/10 03:25:40;;;;;;;8.83;3.73;;;;;;;;;;2057239;28;20512;-51
2022/05/10 03:26:45;;;;;;;10.75;4.05;;;;;;;;;;2057371;28;20053;-48
2022/05/10 03:27:47;;;;;;;11.68;4.97;;;;;;;;;;2057138;28;20412;-51
2022/05/10 03:28:48;;;;;;;10.00;3.60;;;;;;;;;;2057298;28;20193;-50
2022/05/10 03:29:49;;;;;;;8.57;3.75;;;;;;;;;;2057471;28;20158;-49
2022/05/10 03:30:51;;;;;;;6.90;3.47;;;;;;;;;;2057441;28;20051;-51
2022/05/10 03:31:52;;;;;;;10.95;4.60;;;;;;;;;;2057366;28;20078;-48
2022/05/10 03:32:54;;;;;;;11.43;4.00;;;;;;;;;;2057310;28;20122;-50
2022/05/10 03:35:24;;;;;;;8.55;3.00;;;;;;;;;;2040299;29;20079;-49
2022/05/10 03:36:25;;;;;;;8.65;3.70;;;;;;;;;;2050166;28;20489;-52
2022/05/10 03:37:28;;;;;;;8.38;4.32;;;;;;;;;;2057779;28;20058;-50
2022/05/10 03:38:29;;;;;;;9.60;3.85;;;;;;;;;;2065437;28;20555;-51
2022/05/10 03:39:30;;;;;;;7.40;3.33;;;;;;;;;;2065267;28;20108;-50
2022/05/10 03:40:32;;;;;;;9.40;3.83;;;;;;;;;;2065396;28;20046;-50
2022/05/10 03:41:33;;;;;;;12.68;4.75;;;;;;;;;;2065274;28;20112;-48
2022/05/10 03:42:34;;;;;;;12.80;4.53;;;;;;;;;;2065176;28;20050;-49
2022/05/10 03:43:35;;;;;;;18.45;5.43;;;;;;;;;;2065046;28;20133;-49
2022/05/10 03:44:36;;;;;;;13.18;4.68;;;;;;;;;;2065327;28;20121;-51
2022/05/10 03:45:37;;;;;;;11.73;5.75;;;;;;;;;;2065326;28;20050;-48
2022/05/10 03:46:38;;;;;;;13.70;4.85;;;;;;;;;;2065150;28;20125;-50
2022/05/10 03:47:40;;;;;;;13.53;5.33;;;;;;;;;;2065387;28;20058;-48
2022/05/10 03:48:42;;;;;;;16.27;6.60;;;;;;;;;;2065099;28;20080;-51
2022/05/10 03:49:43;;;;;;;11.75;5.43;;;;;;;;;;2065222;28;20055;-50
2022/05/10 03:50:44;;;;;;;13.90;5.75;;;;;;;;;;2065207;28;20354;-49
2022/05/10 03:51:45;;;;;;;14.50;5.55;;;;;;;;;;2065314;28;20084;-48
2022/05/10 03:52:46;;;;;;;11.40;6.20;;;;;;;;;;2065170;28;20133;-48
2022/05/10 03:53:47;;;;;;;15.60;5.50;;;;;;;;;;2065299;28;20137;-49
2022/05/10 03:54:48;;;;;;;18.48;6.45;;;;;;;;;;2065218;28;20056;-51
2022/05/10 03:55:50;;;;;;;13.65;6.20;;;;;;;;;;2065076;28;20503;-51
2022/05/10 03:56:50;;;;;;;10.88;5.95;;;;;;;;;;2065175;28;20415;-48
2022/05/10 03:57:52;;;;;;;13.20;5.60;;;;;;;;;;2065000;28;20057;-49
2022/05/10 03:58:53;;;;;;;15.32;6.93;;;;;;;;;;2065131;28;20138;-48
2022/05/10 03:59:54;;;;;;;11.48;5.10;;;;;;;;;;2065123;28;20417;-48
2022/05/10 04:00:55;;;;;;;13.40;6.97;;;;;;;;;;2065099;28;20157;-50
2022/05/10 04:01:57;;;;;;;16.45;6.82;;;;;;;;;;2065132;28;20050;-50
2022/05/10 04:03:03;;;;;;;17.85;6.38;;;;;;;;;;2065261;28;20053;-50
2022/05/10 04:04:05;;;;;;;16.27;7.05;;;;;;;;;;2065049;28;20076;-49
2022/05/10 04:05:07;;;;;;;15.90;7.80;;;;;;;;;;2065091;28;20514;-49
2022/05/10 04:06:09;;;;;;;15.95;6.50;;;;;;;;;;2065029;28;20178;-49
2022/05/10 04:07:10;;;;;;;11.07;6.03;;;;;;;;;;2065196;28;20099;-49
2022/05/10 04:08:11;;;;;;;14.98;6.97;;;;;;;;;;2065436;28;20133;-59
2022/05/10 04:09:13;;;;;;;16.10;6.72;;;;;;;;;;2064984;28;20054;-59
2022/05/10 04:10:14;;;;;;;17.45;7.05;;;;;;;;;;2064986;28;20572;-59
2022/05/10 04:11:16;;;;;;;17.42;6.88;;;;;;;;;;2065008;28;20046;-59
2022/05/10 04:12:17;;;;;;;12.93;6.50;;;;;;;;;;2065047;28;20141;-58
2022/05/10 04:13:18;;;;;;;14.13;6.33;;;;;;;;;;2065106;28;20474;-59
2022/05/10 04:14:19;;;;;;;14.68;6.63;;;;;;;;;;2064913;28;20756;-59
2022/05/10 04:15:20;;;;;;;14.77;6.93;;;;;;;;;;2065008;28;20042;-58
2022/05/10 04:16:22;;;;;;;14.85;6.85;;;;;;;;;;2065093;28;20125;-59
2022/05/10 04:17:23;;;;;;;15.50;7.28;;;;;;;;;;2064952;28;20073;-59
2022/05/10 04:18:24;;;;;;;14.60;7.13;;;;;;;;;;2064450;28;20133;-59
2022/05/10 04:19:26;;;;;;;16.95;6.35;;;;;;;;;;2057085;28;20481;-59
2022/05/10 04:20:27;;;;;;;14.88;7.40;;;;;;;;;;2056978;28;20043;-59
2022/05/10 04:21:28;;;;;;;13.67;6.57;;;;;;;;;;2057033;28;20129;-59
2022/05/10 04:22:29;;;;;;;15.80;7.60;;;;;;;;;;2056808;28;20042;-59
2022/05/10 04:23:47;;;;;;;15.10;7.43;;;;;;;;;;2057114;28;20248;-59
2022/05/10 04:24:48;;;;;;;15.50;7.25;;;;;;;;;;2056935;28;20089;-59
2022/05/10 04:25:49;;;;;;;17.23;7.97;;;;;;;;;;2056878;28;20054;-59
2022/05/10 04:26:50;;;;;;;14.25;7.65;;;;;;;;;;2056833;28;20141;-59
2022/05/10 04:27:52;;;;;;;21.20;8.18;;;;;;;;;;2057098;28;20058;-49
2022/05/10 04:28:54;;;;;;;17.77;8.20;;;;;;;;;;2056884;28;20050;-49
2022/05/10 04:29:55;;;;;;;18.98;8.98;;;;;;;;;;2056937;28;20051;-50
2022/05/10 04:30:56;;;;;;;17.40;8.18;;;;;;;;;;2057120;28;20138;-48
2022/05/10 04:31:59;;;;;;;18.63;7.97;;;;;;;;;;2056825;28;20517;-48
2022/05/10 04:33:00;;;;;;;16.17;7.50;;;;;;;;;;2056848;28;20139;-48
2022/05/10 04:34:02;;;;;;;18.10;8.20;;;;;;;;;;2060082;28;20039;-50
2022/05/10 04:35:04;;;;;;;18.67;9.13;;;;;;;;;;2064750;28;20460;-49
2022/05/10 04:36:08;;;;;;;15.13;7.47;;;;;;;;;;2064836;28;20045;-49
2022/05/10 04:37:16;;;;;;;17.95;7.60;;;;;;;;;;2064838;28;20480;-49
2022/05/10 04:38:17;;;;;;;20.05;8.88;;;;;;;;;;2065039;28;20516;-48
2022/05/10 04:39:18;;;;;;;20.38;9.02;;;;;;;;;;2064982;28;20070;-48
2022/05/10 04:41:43;;;;;;;17.88;7.35;;;;;;;;;;2064932;28;20046;-49
2022/05/10 04:42:44;;;;;;;13.98;6.63;;;;;;;;;;2064854;28;20134;-50
2022/05/10 04:43:45;;;;;;;13.93;6.97;;;;;;;;;;2064751;28;20570;-49
2022/05/10 04:44:46;;;;;;;14.00;5.97;;;;;;;;;;2064891;28;20061;-49
2022/05/10 04:45:47;;;;;;;16.25;6.35;;;;;;;;;;2065168;28;20057;-59
2022/05/10 04:46:48;;;;;;;17.20;6.25;;;;;;;;;;2064901;28;20065;-59
2022/05/10 04:47:49;;;;;;;15.13;6.88;;;;;;;;;;2064113;28;20555;-59
2022/05/10 04:48:51;;;;;;;15.30;6.38;;;;;;;;;;2064547;28;20133;-59
2022/05/10 04:49:51;;;;;;;12.70;5.40;;;;;;;;;;2064850;28;20125;-58
2022/05/10 04:50:53;;;;;;;9.63;5.38;;;;;;;;;;2064939;28;20050;-59
2022/05/10 04:51:55;;;;;;;10.65;4.75;;;;;;;;;;2064696;28;20046;-59
2022/05/10 04:52:55;;;;;;;11.90;5.53;;;;;;;;;;2064708;28;20050;-59
2022/05/10 04:53:57;;;;;;;11.20;5.07;;;;;;;;;;2064875;28;20051;-59
2022/05/10 04:54:58;;;;;;;8.48;4.30;;;;;;;;;;2064739;28;20141;-59
2022/05/10 04:55:59;;;;;;;10.73;5.57;;;;;;;;;;2064653;28;20058;-59
2022/05/10 04:57:01;;;;;;;10.95;5.30;;;;;;;;;;2065063;28;20128;-59
2022/05/10 04:58:02;;;;;;;11.75;5.15;;;;;;;;;;2064771;28;20054;-48
2022/05/10 04:59:03;;;;;;;10.37;4.93;;;;;;;;;;2064752;28;20137;-48
2022/05/10 05:00:05;;;;;;;14.40;5.63;;;;;;;;;;2064670;28;20078;-50
2022/05/10 05:01:07;;;;;;;12.57;4.55;;;;;;;;;;2064901;28;20092;-49
2022/05/10 05:02:08;;;;;;;9.18;5.13;;;;;;;;;;2064820;28;20057;-47
2022/05/10 05:03:11;;;;;;;9.43;3.90;;;;;;;;;;2064627;28;20045;-47
2022/05/10 05:04:12;;;;;;;10.90;5.00;;;;;;;;;;2064728;28;20065;-48
2022/05/10 05:05:13;;;;;;;10.65;3.92;;;;;;;;;;2064644;28;20052;-48
2022/05/10 05:06:15;;;;;;;8.85;4.38;;;;;;;;;;2064929;28;20137;-48
2022/05/10 05:07:16;;;;;;;;;;;;;;;;;;2065142;28;20468;-49
2022/05/10 05:08:17;;;;;;;11.45;4.85;;;;;;;;;;2065037;28;19945;-48
2022/05/10 05:09:18;;;;;;;9.18;4.03;;;;;;;;;;2064693;28;20093;-47
2022/05/10 05:10:19;;;;;;;10.80;4.13;;;;;;;;;;2064603;28;20149;-49
2022/05/10 05:11:20;;;;;;;10.83;4.33;;;;;;;;;;2064759;28;20057;-48
2022/05/10 05:12:22;;;;;;;7.85;4.40;;;;;;;;;;2065053;28;20087;-50
2022/05/10 05:13:23;;;;;;;7.72;4.05;;;;;;;;;;2065005;28;20129;-47
2022/05/10 05:14:25;;;;;;;10.38;4.75;;;;;;;;;;2064500;28;20527;-47
2022/05/10 05:15:26;;;;;;;8.68;4.53;;;;;;;;;;2064675;28;20054;-49
2022/05/10 05:16:27;;;;;;;8.97;4.13;;;;;;;;;;2056720;28;20079;-47
2022/05/10 05:17:28;;;;;;;7.38;3.60;;;;;;;;;;2056646;28;20288;-48
2022/05/10 05:18:29;;;;;;;7.97;4.23;;;;;;;;;;2056393;28;20062;-48
2022/05/10 05:19:31;;;;;;;6.32;3.70;;;;;;;;;;2056535;28;20588;-47
2022/05/10 05:20:32;;;;;;;11.05;3.30;;;;;;;;;;2056518;28;20389;-48
2022/05/10 05:21:34;;;;;;;8.80;4.55;;;;;;;;;;2056604;28;20528;-48
2022/05/10 05:22:34;;;;;;;;;;;;;;;;;;2057078;28;20047;-47
2022/05/10 05:23:36;;;;;;;9.10;3.58;;;;;;;;;;2056487;28;19922;-49
2022/05/10 05:24:37;;;;;;;9.77;3.70;;;;;;;;;;2056570;28;20567;-48
2022/05/10 05:25:39;;;;;;;7.28;3.30;;;;;;;;;;2056528;28;20186;-48
2022/05/10 05:26:40;;;;;;;7.80;3.78;;;;;;;;;;2056663;28;20059;-47
2022/05/10 05:27:41;;;;;;;8.07;3.38;;;;;;;;;;2056486;28;20510;-48
2022/05/10 05:28:49;;;;;;;9.57;3.75;;;;;;;;;;2056486;28;20441;-48
2022/05/10 05:29:50;;;;;;;8.45;4.05;;;;;;;;;;2056840;28;20051;-59
2022/05/10 05:31:04;;;;;;;10.75;3.72;;;;;;;;;;2048658;28;20083;-60
2022/05/10 05:32:08;;;;;;;11.13;3.80;;;;;;;;;;2048571;28;20092;-60
2022/05/10 05:33:09;;;;;;;9.90;3.60;;;;;;;;;;2048517;28;20493;-60
2022/05/10 05:34:11;;;;;;;9.43;3.55;;;;;;;;;;2048530;28;20130;-59
2022/05/10 05:35:13;;;;;;;8.07;3.30;;;;;;;;;;2048409;28;20533;-60
2022/05/10 05:36:14;;;;;;;8.77;3.40;;;;;;;;;;2048592;28;20078;-60
2022/05/10 05:37:34;;;;;;;8.60;3.97;;;;;;;;;;2048507;28;20483;-60
2022/05/10 05:38:35;;;;;;;11.27;3.10;;;;;;;;;;2048425;28;20103;-59
2022/05/10 05:39:36;;;;;;;8.68;3.55;;;;;;;;;;2048654;28;20182;-59
2022/05/10 05:40:37;;;;;;;5.70;3.13;;;;;;;;;;2048818;28;20055;-48
2022/05/10 05:41:38;;;;;;;8.48;3.88;;;;;;;;;;2048653;28;20397;-49
2022/05/10 05:42:40;;;;;;;7.60;3.67;;;;;;;;;;2048616;28;20051;-47
2022/05/10 05:43:41;;;;;;;9.95;4.07;;;;;;;;;;2048348;28;20507;-49
2022/05/10 05:44:42;;;;;;;11.65;4.25;;;;;;;;;;2048497;28;20588;-50
2022/05/10 05:45:44;;;;;;;8.10;3.90;;;;;;;;;;2048742;28;20051;-59
2022/05/10 05:46:45;;;;;;;6.60;3.80;;;;;;;;;;2048843;28;20051;-59
2022/05/10 05:47:46;;;;;;;7.57;3.47;;;;;;;;;;2048427;28;20047;-60
2022/05/10 05:48:47;;;;;;;7.40;3.33;;;;;;;;;;2048445;28;20595;-60
2022/05/10 05:49:48;;;;;;;7.47;3.22;;;;;;;;;;2048481;28;20058;-60
2022/05/10 05:50:49;;;;;;;6.65;3.10;;;;;;;;;;2048618;28;20117;-60
2022/05/10 05:51:54;;;;;;;9.60;3.50;;;;;;;;;;2048531;28;20055;-60
2022/05/10 05:52:56;;;;;;;9.15;3.03;;;;;;;;;;2048369;28;20529;-60
2022/05/10 05:53:57;;;;;;;6.88;2.65;;;;;;;;;;2048495;28;20105;-59
2022/05/10 05:54:58;;;;;;;7.60;2.77;;;;;;;;;;2048436;28;20379;-60
2022/05/10 05:56:00;;;;;;;4.68;2.67;;;;;;;;;;2048505;28;20584;-60
2022/05/10 05:57:01;;;;;;;;;;;;;;;;;;2048882;28;20201;-59
2022/05/10 05:58:02;;;;;;;7.20;2.85;;;;;;;;;;2048404;28;20391;-60
2022/05/10 05:59:03;;;;;;;4.90;2.53;;;;;;;;;;2048311;28;20540;-60
2022/05/10 06:00:06;;;;;;;6.05;2.50;;;;;;;;;;2050051;28;20051;-60
2022/05/10 06:01:11;;;;;;;4.65;2.53;;;;;;;;;;2049829;28;20127;-61
2022/05/10 06:02:13;;;;;;;4.18;2.05;;;;;;;;;;2049890;28;20044;-60
2022/05/10 06:03:14;;;;;;;5.75;2.10;;;;;;;;;;2049881;28;20698;-60
2022/05/10 06:04:15;;;;;;;6.75;2.03;;;;;;;;;;2049880;28;20147;-60
2022/05/10 06:05:17;;;;;;;5.13;2.15;;;;;;;;;;2050220;28;20069;-48
2022/05/10 06:06:18;;;;;;;5.63;2.80;;;;;;;;;;2049862;28;20122;-47
2022/05/10 06:07:19;;;;;;;4.75;2.50;;;;;;;;;;2049771;28;20047;-48
2022/05/10 06:08:21;;;;;;;7.18;2.53;;;;;;;;;;2049722;28;20133;-48
2022/05/10 06:09:22;;;;;;;4.55;2.33;;;;;;;;;;2049897;28;20130;-48
2022/05/10 06:10:24;;;;;;;8.50;2.45;;;;;;;;;;2049788;28;20130;-47
2022/05/10 06:11:25;;;;;;;3.38;2.05;;;;;;;;;;2049892;28;20130;-48
2022/05/10 06:12:26;;;;;;;6.00;2.27;;;;;;;;;;2055307;28;20416;-48
2022/05/10 06:13:27;;;;;;;5.55;2.90;;;;;;;;;;2057839;28;20082;-48
2022/05/10 06:14:29;;;;;;;6.63;2.92;;;;;;;;;;2057974;28;20047;-48
2022/05/10 06:15:30;;;;;;;5.60;2.53;;;;;;;;;;2057595;28;20130;-49
2022/05/10 06:16:31;;;;;;;7.90;2.78;;;;;;;;;;2057744;28;20174;-48
2022/05/10 06:17:32;;;;;;;3.87;2.07;;;;;;;;;;2057840;28;20050;-47
2022/05/10 06:18:33;;;;;;;5.45;2.17;;;;;;;;;;2057765;28;20316;-47
2022/05/10 06:19:36;;;;;;;5.10;2.23;;;;;;;;;;2057641;28;20572;-49
2022/05/10 06:20:37;;;;;;;6.55;2.47;;;;;;;;;;2057761;28;20141;-48